Time;durP1;ratioP1;P1;durP2;ratioP2;P2;SDS_P1;SDS_P2;PMS_P1;PMS_P2;Temp;Humidity;BMP_temperature;BMP_pressure;BME280_temperature;BME280_humidity;BME280_pressure;Samples;Min_cycle;Max_cycle;Signal;HPM_P1;HPM_P2
2022/06/07 00:00:14;;;;;;;21.77;12.63;;;;;;;;;;5054391;28;20387;-72
2022/06/07 00:02:40;;;;;;;27.58;12.10;;;;;;;;;;5054063;28;20055;-73
2022/06/07 00:05:07;;;;;;;21.73;11.40;;;;;;;;;;5054484;28;20029;-72
2022/06/07 00:07:33;;;;;;;21.92;12.85;;;;;;;;;;5054331;28;20114;-72
2022/06/07 00:09:59;;;;;;;20.38;12.05;;;;;;;;;;5054082;28;20017;-73
2022/06/07 00:12:25;;;;;;;24.17;13.27;;;;;;;;;;5054051;28;20436;-73
2022/06/07 00:14:51;;;;;;;24.75;12.60;;;;;;;;;;5053982;28;20091;-73
2022/06/07 00:17:18;;;;;;;23.75;12.57;;;;;;;;;;5053935;28;20058;-73
2022/06/07 00:19:44;;;;;;;22.42;12.65;;;;;;;;;;5053950;28;20057;-72
2022/06/07 00:22:10;;;;;;;24.35;13.15;;;;;;;;;;5053942;28;20021;-73
2022/06/07 00:24:37;;;;;;;24.25;12.20;;;;;;;;;;5053859;28;20035;-72
2022/06/07 00:27:03;;;;;;;24.70;12.85;;;;;;;;;;5053626;28;20021;-72
2022/06/07 00:29:29;;;;;;;21.58;12.55;;;;;;;;;;5053634;28;20026;-72
2022/06/07 00:31:55;;;;;;;23.98;13.02;;;;;;;;;;5052978;28;20021;-72
2022/06/07 00:34:23;;;;;;;25.50;13.10;;;;;;;;;;5053670;28;20028;-72
2022/06/07 00:36:49;;;;;;;27.35;12.98;;;;;;;;;;5053732;28;20093;-73
2022/06/07 00:39:15;;;;;;;31.95;13.90;;;;;;;;;;5053529;28;20075;-73
2022/06/07 00:41:41;;;;;;;31.33;14.95;;;;;;;;;;5053485;28;20745;-73
2022/06/07 00:44:26;;;;;;;25.10;13.23;;;;;;;;;;5053321;28;20427;-72
2022/06/07 00:46:53;;;;;;;27.02;15.00;;;;;;;;;;5053370;28;20029;-72
2022/06/07 00:49:21;;;;;;;31.30;14.98;;;;;;;;;;5053227;28;20053;-73
2022/06/07 00:51:47;;;;;;;33.63;16.23;;;;;;;;;;5053356;28;20419;-72
2022/06/07 00:54:20;;;;;;;30.30;15.93;;;;;;;;;;5053212;28;20025;-72
2022/06/07 00:56:46;;;;;;;34.03;15.75;;;;;;;;;;5053126;28;20033;-73
2022/06/07 00:59:12;;;;;;;33.08;17.15;;;;;;;;;;5053246;28;20053;-73
2022/06/07 01:01:38;;;;;;;35.33;17.02;;;;;;;;;;5052943;28;20033;-72
2022/06/07 01:04:04;;;;;;;35.15;17.92;;;;;;;;;;5053256;28;20036;-72
2022/06/07 01:11:59;;;;;;;38.47;19.55;;;;;;;;;;5033112;28;20376;-72
2022/06/07 01:14:25;;;;;;;39.90;19.33;;;;;;;;;;5032965;28;20033;-72
2022/06/07 01:16:51;;;;;;;40.20;20.35;;;;;;;;;;5045944;28;20097;-73
2022/06/07 01:19:17;;;;;;;37.13;19.33;;;;;;;;;;5052768;28;20394;-72
2022/06/07 01:21:45;;;;;;;42.17;19.83;;;;;;;;;;5052753;28;20411;-72
2022/06/07 01:24:13;;;;;;;41.72;19.77;;;;;;;;;;5052720;28;20040;-72
2022/06/07 01:26:39;;;;;;;42.13;20.80;;;;;;;;;;5052522;28;20037;-73
2022/06/07 01:29:05;;;;;;;41.15;20.13;;;;;;;;;;5052763;28;20025;-74
2022/06/07 01:31:31;;;;;;;42.15;19.80;;;;;;;;;;5052399;28;20114;-72
2022/06/07 01:33:57;;;;;;;35.72;18.80;;;;;;;;;;5052540;28;20036;-72
2022/06/07 01:36:24;;;;;;;51.33;19.92;;;;;;;;;;5052659;28;20043;-72
2022/06/07 01:41:55;;;;;;;40.30;18.80;;;;;;;;;;5030037;28;20033;-73
2022/06/07 01:44:22;;;;;;;43.60;20.67;;;;;;;;;;5028877;28;20068;-72
2022/06/07 01:46:48;;;;;;;39.83;19.65;;;;;;;;;;5029933;28;20468;-72
2022/06/07 01:49:15;;;;;;;44.70;21.17;;;;;;;;;;5030021;28;20030;-72
2022/06/07 01:51:41;;;;;;;44.65;20.40;;;;;;;;;;5029877;28;20447;-72
2022/06/07 01:54:07;;;;;;;38.40;20.73;;;;;;;;;;5029918;28;20041;-72
2022/06/07 01:56:33;;;;;;;41.97;20.63;;;;;;;;;;5029733;28;20048;-72
2022/06/07 01:58:59;;;;;;;51.22;22.25;;;;;;;;;;5029626;28;20056;-73
2022/06/07 02:01:25;;;;;;;46.50;22.15;;;;;;;;;;5029707;28;20040;-73
2022/06/07 02:03:51;;;;;;;48.58;22.20;;;;;;;;;;5029514;28;20497;-72
2022/06/07 02:06:17;;;;;;;48.78;22.60;;;;;;;;;;5029522;28;20041;-72
2022/06/07 02:08:43;;;;;;;52.83;22.50;;;;;;;;;;5029626;28;20480;-72
2022/06/07 02:11:12;;;;;;;46.28;21.85;;;;;;;;;;5029536;28;20032;-73
2022/06/07 02:13:38;;;;;;;49.65;22.00;;;;;;;;;;5029644;28;20124;-72
2022/06/07 02:16:05;;;;;;;55.83;22.50;;;;;;;;;;5029400;28;20059;-72
2022/06/07 02:18:31;;;;;;;44.95;22.00;;;;;;;;;;5038945;28;20049;-72
2022/06/07 02:20:59;;;;;;;43.55;22.08;;;;;;;;;;5051703;28;20321;-72
2022/06/07 02:23:25;;;;;;;44.50;21.65;;;;;;;;;;5051696;28;20162;-72
2022/06/07 02:25:53;;;;;;;53.17;23.92;;;;;;;;;;5051554;28;20086;-73
2022/06/07 02:28:20;;;;;;;52.90;22.85;;;;;;;;;;5051642;28;20100;-72
2022/06/07 02:30:46;;;;;;;46.00;22.00;;;;;;;;;;5051290;28;20021;-72
2022/06/07 02:33:13;;;;;;;48.33;22.05;;;;;;;;;;5051574;28;20033;-72
2022/06/07 02:35:40;;;;;;;56.20;22.25;;;;;;;;;;5051515;28;20401;-72
2022/06/07 02:38:06;;;;;;;50.97;23.15;;;;;;;;;;5051468;28;20029;-72
2022/06/07 02:40:32;;;;;;;45.78;21.13;;;;;;;;;;5051501;28;20508;-72
2022/06/07 02:42:58;;;;;;;45.45;20.90;;;;;;;;;;5051123;28;20055;-72
2022/06/07 02:45:24;;;;;;;48.03;21.23;;;;;;;;;;5051398;28;20388;-73
2022/06/07 02:47:50;;;;;;;40.45;21.05;;;;;;;;;;5049816;28;20029;-72
2022/06/07 02:50:17;;;;;;;46.47;20.50;;;;;;;;;;5051194;28;20036;-72
2022/06/07 02:52:43;;;;;;;43.72;20.05;;;;;;;;;;5051394;28;20067;-72
2022/06/07 02:55:09;;;;;;;42.83;18.55;;;;;;;;;;5051017;28;20128;-72
2022/06/07 02:57:36;;;;;;;41.67;19.33;;;;;;;;;;5051320;28;20120;-72
2022/06/07 03:00:02;;;;;;;43.10;19.90;;;;;;;;;;5051231;28;20100;-72
2022/06/07 03:02:28;;;;;;;38.67;18.95;;;;;;;;;;5051119;28;20132;-72
2022/06/07 03:04:54;;;;;;;41.45;20.13;;;;;;;;;;5045982;28;20340;-72
2022/06/07 03:07:20;;;;;;;38.67;19.23;;;;;;;;;;5031377;28;20021;-72
2022/06/07 03:09:46;;;;;;;47.28;20.63;;;;;;;;;;5031251;28;20018;-72
2022/06/07 03:12:12;;;;;;;45.90;20.10;;;;;;;;;;5031237;28;20026;-72
2022/06/07 03:14:39;;;;;;;41.97;21.08;;;;;;;;;;5031178;28;20034;-72
2022/06/07 03:17:06;;;;;;;39.92;20.80;;;;;;;;;;5046002;28;20079;-72
2022/06/07 03:19:32;;;;;;;45.03;22.25;;;;;;;;;;5051043;28;20025;-72
2022/06/07 03:21:58;;;;;;;47.53;21.70;;;;;;;;;;5051094;28;20036;-72
2022/06/07 03:24:26;;;;;;;41.92;21.73;;;;;;;;;;5050872;28;20104;-72
2022/06/07 03:26:52;;;;;;;43.80;21.73;;;;;;;;;;5050969;28;20443;-72
2022/06/07 03:29:18;;;;;;;47.75;21.38;;;;;;;;;;5051073;28;20383;-72
2022/06/07 03:31:44;;;;;;;41.42;20.17;;;;;;;;;;5050737;28;20570;-72
2022/06/07 03:34:11;;;;;;;45.88;21.83;;;;;;;;;;5050973;28;20113;-72
2022/06/07 03:36:37;;;;;;;49.17;20.70;;;;;;;;;;5050939;28;20033;-72
2022/06/07 03:39:06;;;;;;;55.22;21.88;;;;;;;;;;5050831;28;20032;-72
2022/06/07 03:41:33;;;;;;;45.00;21.40;;;;;;;;;;5050837;28;20162;-72
2022/06/07 03:43:59;;;;;;;47.83;22.23;;;;;;;;;;5050616;28;20060;-72
2022/06/07 03:46:26;;;;;;;47.35;21.98;;;;;;;;;;5050899;28;20459;-73
2022/06/07 03:48:52;;;;;;;41.38;21.08;;;;;;;;;;5051344;28;20025;-73
2022/06/07 03:51:19;;;;;;;46.72;22.73;;;;;;;;;;5051079;28;20032;-72
2022/06/07 03:53:46;;;;;;;46.83;23.25;;;;;;;;;;5051127;28;20456;-72
2022/06/07 03:56:12;;;;;;;45.03;22.60;;;;;;;;;;5051061;28;20025;-72
2022/06/07 03:58:39;;;;;;;46.58;23.23;;;;;;;;;;5051271;28;20021;-72
2022/06/07 04:01:06;;;;;;;42.58;22.70;;;;;;;;;;5050771;28;20037;-72
2022/06/07 04:03:32;;;;;;;43.78;21.85;;;;;;;;;;5050715;28;20040;-73
2022/06/07 04:05:58;;;;;;;44.35;22.52;;;;;;;;;;5045945;28;20029;-73
2022/06/07 04:08:25;;;;;;;41.38;23.10;;;;;;;;;;5034298;28;20025;-72
2022/06/07 04:10:56;;;;;;;40.20;21.38;;;;;;;;;;5034086;28;20025;-73
2022/06/07 04:13:23;;;;;;;43.38;22.15;;;;;;;;;;5034237;28;20117;-72
2022/06/07 04:15:50;;;;;;;42.10;21.35;;;;;;;;;;5036830;28;20036;-72
2022/06/07 04:18:16;;;;;;;44.85;22.63;;;;;;;;;;5054111;28;20025;-72
2022/06/07 04:20:42;;;;;;;39.20;21.40;;;;;;;;;;5053798;28;20017;-73
2022/06/07 04:23:10;;;;;;;43.30;21.67;;;;;;;;;;5053899;28;20490;-72
2022/06/07 04:25:37;;;;;;;47.35;21.17;;;;;;;;;;5053817;28;20025;-72
2022/06/07 04:28:03;;;;;;;39.88;20.38;;;;;;;;;;5053670;28;20059;-73
2022/06/07 04:30:30;;;;;;;41.95;21.10;;;;;;;;;;5053585;28;20092;-72
2022/06/07 04:32:57;;;;;;;35.75;19.60;;;;;;;;;;5053589;28;20340;-72
2022/06/07 04:35:23;;;;;;;33.17;18.77;;;;;;;;;;5053623;28;20183;-73
2022/06/07 04:37:49;;;;;;;35.97;20.42;;;;;;;;;;5053680;28;20026;-73
2022/06/07 04:40:16;;;;;;;37.25;19.42;;;;;;;;;;5053480;28;20032;-72
2022/06/07 04:42:43;;;;;;;30.45;18.65;;;;;;;;;;5053299;28;20048;-72
2022/06/07 04:45:13;;;;;;;32.67;18.38;;;;;;;;;;5053470;28;20044;-72
2022/06/07 04:47:40;;;;;;;33.13;18.23;;;;;;;;;;5053319;28;20025;-72
2022/06/07 04:50:06;;;;;;;32.47;17.67;;;;;;;;;;5053254;28;20021;-72
2022/06/07 04:52:32;;;;;;;35.83;16.98;;;;;;;;;;5053225;28;20464;-72
2022/06/07 04:54:58;;;;;;;37.67;17.58;;;;;;;;;;5053240;28;20475;-72
2022/06/07 04:57:24;;;;;;;34.05;17.83;;;;;;;;;;5053078;28;20036;-72
2022/06/07 04:59:50;;;;;;;30.20;16.55;;;;;;;;;;5053158;28;20096;-72
2022/06/07 05:02:16;;;;;;;29.73;17.63;;;;;;;;;;5053047;28;20032;-72
2022/06/07 05:04:42;;;;;;;33.90;16.92;;;;;;;;;;5049536;28;20021;-72
2022/06/07 05:07:08;;;;;;;25.27;16.33;;;;;;;;;;5033160;28;20034;-72
2022/06/07 05:09:34;;;;;;;39.08;17.67;;;;;;;;;;5033204;28;20051;-72
2022/06/07 05:12:00;;;;;;;28.92;15.88;;;;;;;;;;5033081;28;20488;-72
2022/06/07 05:14:26;;;;;;;28.05;15.70;;;;;;;;;;5033078;28;20395;-72
2022/06/07 05:16:53;;;;;;;29.02;15.40;;;;;;;;;;5045802;28;20161;-73
2022/06/07 05:19:19;;;;;;;25.25;15.07;;;;;;;;;;5052967;28;20029;-72
2022/06/07 05:21:45;;;;;;;26.67;15.57;;;;;;;;;;5052927;28;20063;-72
2022/06/07 05:24:11;;;;;;;27.50;14.63;;;;;;;;;;5051713;28;20036;-72
2022/06/07 05:26:42;;;;;;;30.08;14.60;;;;;;;;;;5053084;28;20013;-73
2022/06/07 05:29:27;;;;;;;27.80;15.57;;;;;;;;;;5053084;28;20036;-73
2022/06/07 05:31:53;;;;;;;28.77;14.73;;;;;;;;;;5052717;28;20486;-72
2022/06/07 05:34:19;;;;;;;28.45;15.45;;;;;;;;;;5052591;28;20037;-73
2022/06/07 05:36:45;;;;;;;25.98;14.77;;;;;;;;;;5052818;28;20040;-72
2022/06/07 05:39:24;;;;;;;28.75;15.45;;;;;;;;;;5052475;28;20029;-73
2022/06/07 05:41:51;;;;;;;25.30;14.68;;;;;;;;;;5050586;28;20027;-72
2022/06/07 05:44:18;;;;;;;29.08;13.77;;;;;;;;;;5052332;28;20460;-72
2022/06/07 05:46:44;;;;;;;28.02;14.93;;;;;;;;;;5052697;28;20029;-72
2022/06/07 05:49:11;;;;;;;23.92;13.57;;;;;;;;;;5052773;28;20024;-72
2022/06/07 05:51:38;;;;;;;25.85;13.85;;;;;;;;;;5052576;28;20021;-72
2022/06/07 05:54:04;;;;;;;25.55;13.90;;;;;;;;;;5052641;28;20025;-72
2022/06/07 05:56:30;;;;;;;24.80;12.88;;;;;;;;;;5052125;28;20037;-73
2022/06/07 05:58:58;;;;;;;24.10;13.02;;;;;;;;;;5052502;28;20103;-72
2022/06/07 06:01:26;;;;;;;26.75;13.45;;;;;;;;;;5052505;28;20028;-72
2022/06/07 06:03:52;;;;;;;19.98;11.75;;;;;;;;;;5052454;28;20029;-72
2022/06/07 06:06:18;;;;;;;20.63;11.93;;;;;;;;;;5043455;28;20681;-73
2022/06/07 06:11:31;;;;;;;27.30;12.25;;;;;;;;;;5052189;28;20032;-73
2022/06/07 06:13:57;;;;;;;24.70;12.05;;;;;;;;;;5051678;28;20029;-73
2022/06/07 06:16:24;;;;;;;23.75;11.65;;;;;;;;;;5048853;28;20036;-72
2022/06/07 06:18:51;;;;;;;17.80;10.98;;;;;;;;;;5051845;28;20025;-73
2022/06/07 06:21:18;;;;;;;25.05;11.65;;;;;;;;;;5051652;28;20827;-72
2022/06/07 06:23:44;;;;;;;21.05;11.57;;;;;;;;;;5048946;28;20101;-73
2022/06/07 06:26:11;;;;;;;19.83;11.48;;;;;;;;;;5051643;28;20033;-73
2022/06/07 06:28:37;;;;;;;18.85;10.98;;;;;;;;;;5051126;28;20124;-73
2022/06/07 06:31:05;;;;;;;17.45;10.65;;;;;;;;;;5051087;28;20102;-73
2022/06/07 06:33:32;;;;;;;17.00;11.02;;;;;;;;;;5051421;28;20379;-73
2022/06/07 06:35:58;;;;;;;15.00;9.85;;;;;;;;;;5051314;28;20140;-73
2022/06/07 06:38:24;;;;;;;19.73;11.27;;;;;;;;;;5051453;28;20025;-73
2022/06/07 06:40:50;;;;;;;22.23;10.07;;;;;;;;;;5051319;28;20028;-73
2022/06/07 06:43:17;;;;;;;13.57;9.82;;;;;;;;;;5051177;28;20345;-73
2022/06/07 06:45:43;;;;;;;16.90;10.20;;;;;;;;;;5051247;28;20359;-73
2022/06/07 06:48:10;;;;;;;17.25;10.52;;;;;;;;;;5051252;28;20051;-73
2022/06/07 06:50:37;;;;;;;19.30;9.75;;;;;;;;;;5051074;28;20094;-73
2022/06/07 06:53:03;;;;;;;16.48;9.90;;;;;;;;;;5051331;28;20040;-73
2022/06/07 06:55:30;;;;;;;17.50;9.68;;;;;;;;;;5051214;28;20032;-73
2022/06/07 06:57:56;;;;;;;14.00;9.38;;;;;;;;;;5051184;28;20044;-73
2022/06/07 07:00:22;;;;;;;15.45;9.52;;;;;;;;;;5050724;28;20036;-73
2022/06/07 07:02:48;;;;;;;15.40;8.48;;;;;;;;;;5049503;28;20021;-73
2022/06/07 07:05:15;;;;;;;17.42;8.73;;;;;;;;;;5048257;28;20884;-73
2022/06/07 07:07:42;;;;;;;14.98;7.97;;;;;;;;;;5051272;28;20131;-73
2022/06/07 07:10:11;;;;;;;12.93;8.32;;;;;;;;;;5051124;28;20097;-73
2022/06/07 07:12:37;;;;;;;15.55;8.50;;;;;;;;;;5050837;28;20028;-73
2022/06/07 07:15:04;;;;;;;17.25;9.07;;;;;;;;;;5050425;28;20395;-73
2022/06/07 07:17:30;;;;;;;12.98;8.30;;;;;;;;;;5050397;28;20483;-73
2022/06/07 07:19:57;;;;;;;14.40;8.38;;;;;;;;;;5050287;28;20154;-73
2022/06/07 07:22:23;;;;;;;12.77;8.23;;;;;;;;;;5050969;28;20029;-73
2022/06/07 07:24:50;;;;;;;14.85;7.95;;;;;;;;;;5050609;28;20021;-74
2022/06/07 07:27:17;;;;;;;13.10;7.68;;;;;;;;;;5049877;28;20020;-73
2022/06/07 07:29:43;;;;;;;12.10;6.97;;;;;;;;;;5049571;28;20029;-73
2022/06/07 07:32:09;;;;;;;11.98;7.57;;;;;;;;;;5049176;28;20018;-74
2022/06/07 07:34:36;;;;;;;11.57;7.35;;;;;;;;;;5048442;28;20408;-73
2022/06/07 07:37:02;;;;;;;14.18;7.60;;;;;;;;;;5049693;28;20020;-74
2022/06/07 07:39:28;;;;;;;11.77;7.78;;;;;;;;;;5048221;28;20514;-73
2022/06/07 07:41:55;;;;;;;11.52;6.65;;;;;;;;;;5051429;28;20083;-73
2022/06/07 07:44:22;;;;;;;10.75;6.82;;;;;;;;;;5053701;28;20037;-74
2022/06/07 07:46:48;;;;;;;15.20;8.10;;;;;;;;;;5054049;28;20035;-73
2022/06/07 07:49:15;;;;;;;15.02;7.97;;;;;;;;;;5054238;28;20013;-73
2022/06/07 07:51:42;;;;;;;13.43;7.40;;;;;;;;;;5054010;28;20029;-74
2022/06/07 07:54:09;;;;;;;11.77;7.00;;;;;;;;;;5053988;28;20503;-74
2022/06/07 07:56:35;;;;;;;15.07;7.82;;;;;;;;;;5051421;28;20021;-73
2022/06/07 07:59:02;;;;;;;16.38;7.40;;;;;;;;;;5054046;28;20540;-73
2022/06/07 08:01:29;;;;;;;11.90;7.85;;;;;;;;;;5054068;28;20040;-73
2022/06/07 08:03:57;;;;;;;13.68;7.40;;;;;;;;;;5054171;28;20150;-73
2022/06/07 08:06:23;;;;;;;12.75;7.40;;;;;;;;;;5054126;28;20453;-73
2022/06/07 08:08:51;;;;;;;9.00;6.55;;;;;;;;;;5054022;28;20025;-74
2022/06/07 08:11:19;;;;;;;10.57;7.30;;;;;;;;;;5054317;28;20036;-76
2022/06/07 08:13:45;;;;;;;10.75;6.35;;;;;;;;;;5054560;28;20035;-76
2022/06/07 08:16:12;;;;;;;11.75;7.20;;;;;;;;;;5054213;28;20424;-76
2022/06/07 08:18:38;;;;;;;15.57;6.88;;;;;;;;;;5054275;28;20317;-76
2022/06/07 08:21:06;;;;;;;14.65;7.07;;;;;;;;;;5054153;28;20021;-76
2022/06/07 08:23:32;;;;;;;10.48;6.55;;;;;;;;;;5053837;28;20087;-76
2022/06/07 08:25:59;;;;;;;8.48;6.07;;;;;;;;;;5053856;28;20501;-76
2022/06/07 08:28:25;;;;;;;10.32;5.90;;;;;;;;;;5054086;28;20460;-76
2022/06/07 08:30:53;;;;;;;11.45;6.40;;;;;;;;;;5053398;28;20029;-75
2022/06/07 08:38:54;;;;;;;8.95;6.22;;;;;;;;;;5054277;28;20051;-76
2022/06/07 08:41:22;;;;;;;11.93;5.88;;;;;;;;;;5053860;28;20118;-75
2022/06/07 08:43:48;;;;;;;11.25;6.70;;;;;;;;;;5047499;28;20043;-76
2022/06/07 08:46:16;;;;;;;9.40;6.00;;;;;;;;;;5054050;28;20025;-76
2022/06/07 08:48:43;;;;;;;10.52;6.00;;;;;;;;;;5054147;28;20452;-76
2022/06/07 08:51:25;;;;;;;12.15;5.75;;;;;;;;;;5054246;28;20086;-76
2022/06/07 08:53:53;;;;;;;9.13;5.68;;;;;;;;;;5053627;28;20029;-77
2022/06/07 08:56:21;;;;;;;9.80;5.60;;;;;;;;;;5053891;28;20056;-76
2022/06/07 08:58:49;;;;;;;8.40;6.07;;;;;;;;;;5053823;28;20025;-76
2022/06/07 09:01:33;;;;;;;9.68;6.25;;;;;;;;;;5053814;28;20025;-77
2022/06/07 09:04:03;;;;;;;14.13;7.40;;;;;;;;;;5053412;28;20037;-73
2022/06/07 09:06:35;;;;;;;12.88;6.50;;;;;;;;;;5034759;28;20360;-76
2022/06/07 09:09:01;;;;;;;;;;;;;;;;;;5033657;28;20044;-76
2022/06/07 09:14:42;;;;;;;12.98;6.90;;;;;;;;;;5033670;28;20107;-78
2022/06/07 09:17:11;;;;;;;8.98;6.20;;;;;;;;;;5032974;28;20447;-76
2022/06/07 09:19:38;;;;;;;12.45;6.97;;;;;;;;;;5033037;28;20476;-76
2022/06/07 09:22:08;;;;;;;10.63;6.60;;;;;;;;;;5033040;28;20029;-75
2022/06/07 09:24:40;;;;;;;11.90;6.47;;;;;;;;;;5048609;28;20328;-79
2022/06/07 09:27:06;;;;;;;;;;;;;;;;;;5053105;28;20082;-77
2022/06/07 09:29:38;;;;;;;15.82;6.35;;;;;;;;;;5053036;28;20006;-76
2022/06/07 09:32:09;;;;;;;10.53;6.53;;;;;;;;;;5052549;28;20021;-78
2022/06/07 09:34:35;;;;;;;10.82;6.13;;;;;;;;;;5053394;28;20025;-79
2022/06/07 09:37:05;;;;;;;11.02;6.50;;;;;;;;;;5053383;28;20021;-79
2022/06/07 09:39:39;;;;;;;12.23;5.85;;;;;;;;;;5052451;28;20439;-79
2022/06/07 09:42:17;;;;;;;11.20;6.15;;;;;;;;;;5050626;28;20031;-79
2022/06/07 09:44:55;;;;;;;8.82;6.00;;;;;;;;;;5052332;28;20110;-79
2022/06/07 09:47:25;;;;;;;12.60;6.00;;;;;;;;;;5053759;28;20033;-80
2022/06/07 09:50:11;;;;;;;10.60;6.30;;;;;;;;;;5052036;28;20017;-76
2022/06/07 09:52:46;;;;;;;12.15;6.18;;;;;;;;;;5050836;28;20024;-76
2022/06/07 09:55:12;;;;;;;13.45;6.88;;;;;;;;;;5051676;28;20024;-76
2022/06/07 09:57:42;;;;;;;10.75;6.22;;;;;;;;;;5051894;28;20075;-82
2022/06/07 10:00:30;;;;;;;11.50;6.18;;;;;;;;;;5053397;28;20025;-83
2022/06/07 10:03:12;;;;;;;10.30;6.70;;;;;;;;;;5053432;28;20029;-80
2022/06/07 10:05:41;;;;;;;12.32;6.60;;;;;;;;;;5052772;28;20096;-81
2022/06/07 10:08:29;;;;;;;9.63;6.13;;;;;;;;;;5053205;28;20025;-82
2022/06/07 10:11:01;;;;;;;11.18;6.60;;;;;;;;;;5053052;28;20029;-83
2022/06/07 10:13:40;;;;;;;13.27;6.22;;;;;;;;;;5069902;28;20097;-82
2022/06/07 10:16:12;;;;;;;9.70;6.72;;;;;;;;;;5052927;28;20025;-82
2022/06/07 10:18:38;;;;;;;;;;;;;;;;;;5054355;28;20051;-81
2022/06/07 10:21:27;;;;;;;11.38;5.93;;;;;;;;;;5052945;28;19912;-80
2022/06/07 10:24:02;;;;;;;10.30;6.70;;;;;;;;;;4995011;28;20042;-82
2022/06/07 10:26:47;;;;;;;11.68;6.78;;;;;;;;;;4993385;28;20535;-81
2022/06/07 10:29:16;;;;;;;14.27;6.90;;;;;;;;;;4990684;28;20105;-82
2022/06/07 10:31:45;;;;;;;14.18;7.63;;;;;;;;;;4991365;28;20105;-81
2022/06/07 10:34:34;;;;;;;9.98;6.88;;;;;;;;;;4991839;28;21876;-81
2022/06/07 10:37:03;;;;;;;10.45;6.82;;;;;;;;;;4991914;28;20076;-81
2022/06/07 10:39:51;;;;;;;12.98;6.97;;;;;;;;;;4991527;28;20038;-80
2022/06/07 10:42:35;;;;;;;17.95;7.25;;;;;;;;;;4991633;28;20495;-81
2022/06/07 10:45:04;;;;;;;11.38;6.80;;;;;;;;;;4980600;28;20125;-80
2022/06/07 10:47:37;;;;;;;9.93;6.22;;;;;;;;;;4991320;28;20477;-80
2022/06/07 10:50:06;;;;;;;9.23;6.13;;;;;;;;;;4991220;28;20030;-81
2022/06/07 10:52:36;;;;;;;9.82;6.32;;;;;;;;;;4991236;28;20022;-81
2022/06/07 10:55:14;;;;;;;9.38;6.45;;;;;;;;;;4991639;28;20058;-80
2022/06/07 10:57:52;;;;;;;10.50;6.32;;;;;;;;;;4991082;28;20065;-81
2022/06/07 11:00:38;;;;;;;9.63;6.43;;;;;;;;;;4989508;28;20037;-80
2022/06/07 11:03:07;;;;;;;9.00;6.10;;;;;;;;;;5032556;28;20096;-81
2022/06/07 11:11:10;;;;;;;10.23;6.95;;;;;;;;;;5052686;28;20036;-80
2022/06/07 11:13:59;;;;;;;11.95;7.10;;;;;;;;;;5052004;28;20460;-77
2022/06/07 11:16:34;;;;;;;9.80;6.65;;;;;;;;;;4992631;28;20034;-78
2022/06/07 11:19:01;;;;;;;11.85;6.78;;;;;;;;;;4993938;28;20073;-77
2022/06/07 11:21:31;;;;;;;12.20;7.18;;;;;;;;;;4994031;28;20200;-76
2022/06/07 11:24:04;;;;;;;11.75;6.57;;;;;;;;;;4994264;28;20062;-77
2022/06/07 11:26:37;;;;;;;11.70;6.68;;;;;;;;;;4993307;28;20351;-77
2022/06/07 11:29:07;;;;;;;10.23;7.50;;;;;;;;;;4994301;28;20035;-77
2022/06/07 11:31:36;;;;;;;11.60;7.95;;;;;;;;;;4980557;28;20023;-77
2022/06/07 11:34:02;;;;;;;12.65;8.75;;;;;;;;;;4974976;28;20039;-77
2022/06/07 11:36:38;;;;;;;15.05;8.57;;;;;;;;;;4974588;28;20039;-76
2022/06/07 11:39:17;;;;;;;14.15;8.57;;;;;;;;;;4973309;28;20042;-77
2022/06/07 11:41:46;;;;;;;11.77;7.80;;;;;;;;;;4974631;28;20415;-76
2022/06/07 11:44:12;;;;;;;11.07;7.90;;;;;;;;;;4974100;28;20163;-76
2022/06/07 11:46:50;;;;;;;10.85;7.50;;;;;;;;;;4974062;28;20528;-77
2022/06/07 11:49:24;;;;;;;12.98;8.75;;;;;;;;;;4974039;28;20066;-76
2022/06/07 11:51:52;;;;;;;11.25;7.95;;;;;;;;;;4977033;28;20061;-77
2022/06/07 11:54:21;;;;;;;12.48;8.63;;;;;;;;;;5042813;28;20501;-77
2022/06/07 11:56:50;;;;;;;13.57;8.98;;;;;;;;;;5049754;28;20047;-77
2022/06/07 11:59:20;;;;;;;12.23;8.38;;;;;;;;;;5071066;28;20490;-76
2022/06/07 12:01:48;;;;;;;12.30;8.85;;;;;;;;;;5073704;28;20029;-76
2022/06/07 12:04:36;;;;;;;10.95;8.50;;;;;;;;;;5065804;28;20413;-76
2022/06/07 12:07:08;;;;;;;14.43;8.98;;;;;;;;;;5035024;28;20037;-78
2022/06/07 12:09:35;;;;;;;11.35;7.78;;;;;;;;;;5034577;28;20116;-80
2022/06/07 12:12:17;;;;;;;14.23;7.88;;;;;;;;;;5049097;28;20078;-76
2022/06/07 12:14:44;;;;;;;12.38;7.57;;;;;;;;;;5053432;28;20096;-77
2022/06/07 12:17:19;;;;;;;11.43;7.70;;;;;;;;;;5053858;28;20078;-77
2022/06/07 12:19:47;;;;;;;11.48;7.50;;;;;;;;;;5052043;28;20585;-77
2022/06/07 12:22:15;;;;;;;11.20;7.80;;;;;;;;;;5053421;28;20033;-77
2022/06/07 12:25:10;;;;;;;13.20;7.47;;;;;;;;;;5053173;28;20017;-77
2022/06/07 12:27:45;;;;;;;11.57;7.45;;;;;;;;;;5048972;28;20040;-77
2022/06/07 12:30:30;;;;;;;11.05;7.75;;;;;;;;;;5051086;28;20741;-78
2022/06/07 12:32:57;;;;;;;14.95;7.30;;;;;;;;;;5054751;28;20022;-78
2022/06/07 12:35:27;;;;;;;11.20;7.63;;;;;;;;;;5054588;28;20112;-78
2022/06/07 12:37:56;;;;;;;10.73;7.18;;;;;;;;;;5054389;28;20021;-78
2022/06/07 12:40:24;;;;;;;16.65;8.57;;;;;;;;;;5052765;28;20703;-78
2022/06/07 12:42:51;;;;;;;11.52;8.02;;;;;;;;;;5054065;28;20040;-78
2022/06/07 12:45:21;;;;;;;14.20;8.60;;;;;;;;;;5054009;28;20404;-77
2022/06/07 12:47:53;;;;;;;10.30;7.85;;;;;;;;;;5056516;28;20021;-78
2022/06/07 12:50:21;;;;;;;9.30;6.95;;;;;;;;;;5054251;28;20582;-78
2022/06/07 12:52:51;;;;;;;10.07;7.45;;;;;;;;;;5053911;28;20032;-78
2022/06/07 12:55:21;;;;;;;11.65;7.10;;;;;;;;;;5053486;28;20036;-78
2022/06/07 12:57:49;;;;;;;8.98;6.75;;;;;;;;;;5053095;28;20025;-76
2022/06/07 13:00:26;;;;;;;11.90;8.13;;;;;;;;;;5053133;28;20416;-76
2022/06/07 13:02:52;;;;;;;11.88;7.32;;;;;;;;;;5052611;28;20021;-77
2022/06/07 13:05:20;;;;;;;11.30;7.10;;;;;;;;;;5053381;28;20420;-77
2022/06/07 13:07:48;;;;;;;11.60;7.80;;;;;;;;;;5053013;28;20102;-77
2022/06/07 13:10:15;;;;;;;11.15;8.10;;;;;;;;;;5052171;28;20025;-77
2022/06/07 13:12:44;;;;;;;14.00;7.75;;;;;;;;;;5052862;28;20409;-76
2022/06/07 13:15:15;;;;;;;13.52;8.52;;;;;;;;;;5052801;28;20459;-77
2022/06/07 13:17:51;;;;;;;14.35;7.57;;;;;;;;;;5053390;28;20491;-77
2022/06/07 13:20:26;;;;;;;14.15;7.70;;;;;;;;;;5052989;28;20032;-77
2022/06/07 13:22:52;;;;;;;11.90;7.82;;;;;;;;;;5053313;28;20032;-75
2022/06/07 13:25:20;;;;;;;10.90;7.93;;;;;;;;;;5052797;28;20017;-75
2022/06/07 13:27:51;;;;;;;13.38;8.68;;;;;;;;;;5053133;28;20103;-75
2022/06/07 13:30:26;;;;;;;12.43;8.35;;;;;;;;;;5049540;28;20025;-75
2022/06/07 13:33:07;;;;;;;12.35;7.93;;;;;;;;;;5033139;28;20025;-74
2022/06/07 13:35:44;;;;;;;12.32;7.75;;;;;;;;;;5032473;28;20030;-75
2022/06/07 13:38:23;;;;;;;9.65;6.70;;;;;;;;;;5032613;28;20028;-75
2022/06/07 13:40:59;;;;;;;11.85;7.25;;;;;;;;;;5033211;28;20352;-75
2022/06/07 13:43:26;;;;;;;11.35;7.90;;;;;;;;;;5032777;28;20053;-76
2022/06/07 13:45:53;;;;;;;11.80;7.95;;;;;;;;;;5032647;28;20071;-76
2022/06/07 13:48:22;;;;;;;10.05;7.55;;;;;;;;;;5032898;28;20018;-76
2022/06/07 13:53:49;;;;;;;11.70;6.72;;;;;;;;;;5033126;28;20186;-76
2022/06/07 13:56:17;;;;;;;10.15;6.68;;;;;;;;;;5032854;28;20078;-76
2022/06/07 13:58:48;;;;;;;9.52;7.40;;;;;;;;;;5043508;28;20674;-76
2022/06/07 14:01:17;;;;;;;10.43;6.55;;;;;;;;;;5032573;28;20049;-76
2022/06/07 14:03:45;;;;;;;12.95;7.25;;;;;;;;;;5032758;28;20029;-76
2022/06/07 14:06:20;;;;;;;9.07;6.75;;;;;;;;;;5048555;28;20029;-76
2022/06/07 14:08:47;;;;;;;8.88;5.93;;;;;;;;;;5052411;28;20036;-76
2022/06/07 14:11:13;;;;;;;7.78;5.70;;;;;;;;;;5052476;28;20025;-76
2022/06/07 14:13:39;;;;;;;9.93;6.60;;;;;;;;;;5052268;28;20033;-75
2022/06/07 14:16:05;;;;;;;8.93;6.47;;;;;;;;;;5052375;28;20040;-74
2022/06/07 14:18:32;;;;;;;10.68;7.00;;;;;;;;;;5052228;28;20029;-75
2022/06/07 14:20:59;;;;;;;13.13;7.20;;;;;;;;;;5052415;28;20036;-74
2022/06/07 14:23:25;;;;;;;9.18;5.95;;;;;;;;;;5052163;28;20029;-74
2022/06/07 14:25:51;;;;;;;8.13;6.20;;;;;;;;;;5051878;28;20087;-74
2022/06/07 14:28:23;;;;;;;8.35;6.25;;;;;;;;;;5052079;28;20628;-77
2022/06/07 14:30:51;;;;;;;9.52;6.70;;;;;;;;;;5051911;28;20025;-74
2022/06/07 14:33:17;;;;;;;10.30;7.15;;;;;;;;;;5052169;28;20112;-74
2022/06/07 14:35:43;;;;;;;14.10;7.75;;;;;;;;;;5052195;28;20056;-74
2022/06/07 14:38:12;;;;;;;11.38;8.15;;;;;;;;;;5052094;28;20036;-74
2022/06/07 14:40:41;;;;;;;9.80;6.95;;;;;;;;;;5052132;28;20510;-74
2022/06/07 14:43:08;;;;;;;10.13;6.72;;;;;;;;;;5051557;28;20079;-74
2022/06/07 14:45:38;;;;;;;6.65;5.25;;;;;;;;;;5052017;28;20159;-75
2022/06/07 14:48:06;;;;;;;7.60;6.13;;;;;;;;;;5051683;28;20543;-74
2022/06/07 14:50:32;;;;;;;7.65;5.75;;;;;;;;;;5049816;28;20025;-76
2022/06/07 14:52:58;;;;;;;9.55;6.80;;;;;;;;;;5051880;28;20096;-76
2022/06/07 14:55:25;;;;;;;9.60;7.40;;;;;;;;;;5051901;28;20037;-75
2022/06/07 14:57:52;;;;;;;13.05;8.05;;;;;;;;;;5051751;28;20028;-74
2022/06/07 15:00:20;;;;;;;14.10;7.22;;;;;;;;;;5051923;28;20025;-76
2022/06/07 15:02:48;;;;;;;12.15;7.70;;;;;;;;;;5051836;28;20094;-74